Detalii statie FIRST FARMS FAUREI [00001992]

Toti senzorii

Date Temperatura solului [C]Precipitatii [mm]Voltaj baterie [mV]Leaf Wetness [Min]HC Air temperature [C]HC Relative humidity [%]Punctul de roua [C]
medieminmaxsumaultimatimpmedieminmaxmediemediemin
2017-06-25 06:00:00 21.4 21.3 21.7 0 6844 17.98 17.18 19.15 100 17.9 17.1
2017-06-25 07:00:00 21.2 21 21.4 0 6982 21.14 19.37 22.35 98.82 20.8 19.3
2017-06-25 08:00:00 21.2 21.2 21.4 0 7070 23.9 22.86 24.65 81.04 20.2 19.9
2017-06-25 09:00:00 21.4 21.3 21.7 0 7186 26.78 24.47 28.81 65.94 19.6 18.4
2017-06-25 10:00:00 21.6 21.3 22 0 7186 29.69 29.06 30.47 50.27 18 17.6
2017-06-25 11:00:00 22.2 21.7 22.7 0 7186 30.93 30.07 32.37 45.24 17.4 16.9
2017-06-25 12:00:00 23.5 23 24 0 7176 32.13 31.44 33.05 39.96 16.6 15.1
2017-06-25 13:00:00 24.9 24.3 25.6 0 7186 32.59 31.48 33.39 37.46 15.9 14.7
2017-06-25 14:00:00 26 25.6 26.5 0 7186 33.04 31.17 34.07 36.06 15.7 14.3
2017-06-25 15:00:00 27 26.6 27.6 0 7186 33.06 32.58 33.77 33.78 14.7 14
2017-06-25 16:00:00 28 27.6 28.3 0 7176 33.34 32.89 33.63 34.2 15.2 14.8
2017-06-25 17:00:00 28.5 28.3 28.8 0 7166 32.92 31.92 33.71 35.52 15.3 14.7
2017-06-25 18:00:00 28.9 28.7 29.1 0 7040 32.21 31.69 32.96 36.08 15 14.5
2017-06-25 19:00:00 28.9 28.7 29.1 0 7166 30.99 30.1 31.58 43.88 16.9 14.9
2017-06-25 20:00:00 28.7 28.5 28.9 0 6834 28 25.91 29.92 64.44 20.4 19.8
2017-06-25 21:00:00 28.2 27.9 28.5 0 6826 24.8 23.99 25.53 77.53 20.4 19.8
2017-06-25 22:00:00 27.5 27.2 27.8 0 6826 23.69 23.1 24.3 85.88 21 20.8
2017-06-25 23:00:00 26.9 26.7 27.3 0 6816 22.3 21.83 23 93.15 21 20.9
2017-06-26 00:00:00 26.2 26 26.6 0 6806 20.87 20.28 21.51 99.7 20.7 20.2
2017-06-26 01:00:00 25.7 25.3 26 0 6806 19.84 19.45 20.28 100 19.7 19.4
2017-06-26 02:00:00 25.1 24.7 25.4 0 6806 19.17 18.86 19.46 100 19.1 18.8
2017-06-26 03:00:00 24.5 24.3 24.8 0 6796 18.13 17.52 18.78 100 18 17.5
2017-06-26 04:00:00 24 23.9 24.3 0 6786 17.31 16.8 17.74 100 17.2 16.8
2017-06-26 05:00:00 23.6 23.3 23.9 0 6796 17.15 16.98 17.31 100 17.1 16.9
2017-06-26 06:00:00 23.1 23 23.4 0 6834 17.88 17.39 18.55 100 17.8 17.3
2017-06-26 07:00:00 22.7 22.5 23 0 6932 20.87 18.93 22.63 91.5 19.2 18.8
2017-06-26 08:00:00 22.6 22.5 22.7 0 7020 23.49 22.66 24.35 73.86 18.3 18
2017-06-26 09:00:00 22.6 22.6 22.8 0 7196 26.49 24.64 27.84 59.87 17.8 17.5
2017-06-26 10:00:00 22.7 22.7 22.9 0 7186 28.55 27.67 30.2 53.05 17.8 17.4
2017-06-26 11:00:00 23.1 22.7 23.6 0 7186 30.87 29.16 31.81 47.05 18 17.5
2017-06-26 12:00:00 24.4 23.8 25.1 0 7186 31.84 31.21 32.46 42.86 17.4 16.8
2017-06-26 13:00:00 25.8 25 26.3 0 7186 33.16 32.88 33.53 37.86 16.6 16
2017-06-26 14:00:00 26.9 26.4 27.4 0 7186 33.88 33.12 34.67 36.57 16.7 16.2
2017-06-26 15:00:00 27.9 27.5 28.3 0 7186 34.33 33.87 34.84 34.44 16.1 15.4
2017-06-26 16:00:00 28.7 28.4 29.3 0 7158 34.04 33.56 34.72 34.32 15.8 14.9
2017-06-26 17:00:00 29.3 29 29.8 0 7070 33.81 33.22 34.16 34.42 15.7 15.1
2017-06-26 18:00:00 29.6 29.5 29.8 0 7166 32.96 32.37 33.28 37.57 16.2 15.7
2017-06-26 19:00:00 29.6 29.5 29.8 0 7010 31.47 29.73 32.36 42.99 17.1 16.2
2017-06-26 20:00:00 29.3 29 29.6 0 6826 27.31 25.39 29.22 56.92 17.7 17.3
2017-06-26 21:00:00 28.7 28.5 29 0 6826 24.9 24.42 25.21 64.52 17.5 16.6
2017-06-26 22:00:00 28 27.7 28.3 0 6816 23.7 23.26 24.17 64.16 16.3 16.2
2017-06-26 23:00:00 27.3 27.1 27.8 0 6806 22.34 21.49 23.13 74.21 17.3 16.5
2017-06-27 00:00:00 26.7 26.5 27.1 0 6806 21.59 21.2 21.99 81.96 18.2 17.9
2017-06-27 01:00:00 26.2 26.1 26.5 0 6806 20.6 20.26 20.88 90.23 18.8 18.6
2017-06-27 02:00:00 25.6 25.4 25.9 0 6806 19.9 19.53 20.21 95.7 19 18.9
2017-06-27 03:00:00 25.2 25.1 25.5 0 6796 18.78 17.99 19.41 99.76 18.6 17.9
2017-06-27 04:00:00 24.7 24.6 25.1 0 6786 18.28 18.06 18.61 100 18.2 18
2017-06-27 05:00:00 24.3 24.3 24.5 0 6806 18.96 18.44 19.86 100 18.9 18.4